Metar z pełnej godziny Komunikat METAR ze strony awiacja.imgw.pl Metar G00 EPMO METAR EPMO 242000Z 26003KT CAVOK 16/11 Q1011 =